Anglesea, New Jersey
Current Conditions -  °F | °C
As of 7:35 AM on Friday 24 Oct 2014 (Local Time) from KWWD Reporting Station
Overcast Overcast  
Wind Chill: 13°   Ceiling: 3300
Heat Index: 13°   Visibility: 10mi
Dew Point:   Wind: 10mph
Humidity: 67%   Direction: 320°NW
Pressure: 29.87"   Gusts: 17mph
Location:  38.9808°N, 74.8281°W
Report Text: KWWD 241135Z AUTO 32009G15KT 10SM OVC033 13/07 A2987 RMK AO1
Loading
Personal Weather Stations






























Interactive Weather Map
Tropical Storm Tracking
New forecast layout! Learn more

10-Day Weather Forecast

Advertisements
Track Severe Weather on mobile